sensor_id;sensor_type;location;lat;lon;timestamp;temperature;humidity
1391;DHT22;690;51.454;7.194;2023-04-24T00:00:26;9.40;99.90
1391;DHT22;690;51.454;7.194;2023-04-24T00:02:53;9.40;99.90
1391;DHT22;690;51.454;7.194;2023-04-24T00:05:22;9.40;99.90
1391;DHT22;690;51.454;7.194;2023-04-24T00:07:49;9.50;99.90
1391;DHT22;690;51.454;7.194;2023-04-24T00:10:21;9.50;99.90
1391;DHT22;690;51.454;7.194;2023-04-24T00:12:49;9.40;99.90
1391;DHT22;690;51.454;7.194;2023-04-24T00:15:16;9.40;99.90
1391;DHT22;690;51.454;7.194;2023-04-24T00:17:43;9.40;99.90
1391;DHT22;690;51.454;7.194;2023-04-24T00:20:12;9.40;99.90
1391;DHT22;690;51.454;7.194;2023-04-24T00:22:40;9.40;99.90
1391;DHT22;690;51.454;7.194;2023-04-24T00:25:08;9.50;99.90
1391;DHT22;690;51.454;7.194;2023-04-24T00:27:36;9.40;99.90
1391;DHT22;690;51.454;7.194;2023-04-24T00:30:06;9.40;99.90
1391;DHT22;690;51.454;7.194;2023-04-24T00:32:33;9.30;99.90
1391;DHT22;690;51.454;7.194;2023-04-24T00:35:00;9.20;99.90
1391;DHT22;690;51.454;7.194;2023-04-24T00:37:27;9.20;99.90
1391;DHT22;690;51.454;7.194;2023-04-24T00:39:54;9.10;99.90
1391;DHT22;690;51.454;7.194;2023-04-24T00:42:23;9.10;99.90
1391;DHT22;690;51.454;7.194;2023-04-24T00:44:50;9.10;99.90
1391;DHT22;690;51.454;7.194;2023-04-24T00:47:19;9.00;99.90
1391;DHT22;690;51.454;7.194;2023-04-24T00:49:47;9.00;99.90
1391;DHT22;690;51.454;7.194;2023-04-24T00:52:14;9.00;99.90
1391;DHT22;690;51.454;7.194;2023-04-24T00:54:43;8.90;99.90
1391;DHT22;690;51.454;7.194;2023-04-24T00:57:10;8.90;99.90
1391;DHT22;690;51.454;7.194;2023-04-24T00:59:41;8.90;99.90
1391;DHT22;690;51.454;7.194;2023-04-24T01:02:11;8.90;99.90
1391;DHT22;690;51.454;7.194;2023-04-24T01:04:43;8.80;99.90
1391;DHT22;690;51.454;7.194;2023-04-24T01:07:10;8.80;99.90
1391;DHT22;690;51.454;7.194;2023-04-24T01:09:37;8.70;99.90
1391;DHT22;690;51.454;7.194;2023-04-24T01:12:04;8.60;99.90
1391;DHT22;690;51.454;7.194;2023-04-24T01:14:31;8.50;99.90
1391;DHT22;690;51.454;7.194;2023-04-24T01:16:58;8.50;99.90
1391;DHT22;690;51.454;7.194;2023-04-24T01:19:27;8.50;99.90
1391;DHT22;690;51.454;7.194;2023-04-24T01:21:58;8.40;99.90
1391;DHT22;690;51.454;7.194;2023-04-24T01:24:30;8.40;1.00
1391;DHT22;690;51.454;7.194;2023-04-24T01:26:57;8.30;1.00
1391;DHT22;690;51.454;7.194;2023-04-24T01:29:24;8.30;1.00
1391;DHT22;690;51.454;7.194;2023-04-24T01:31:51;8.30;1.00
1391;DHT22;690;51.454;7.194;2023-04-24T01:34:18;8.30;1.00
1391;DHT22;690;51.454;7.194;2023-04-24T01:36:46;8.30;1.00
1391;DHT22;690;51.454;7.194;2023-04-24T01:39:14;8.40;1.00
1391;DHT22;690;51.454;7.194;2023-04-24T01:41:43;8.30;1.00
1391;DHT22;690;51.454;7.194;2023-04-24T01:44:10;8.30;1.00
1391;DHT22;690;51.454;7.194;2023-04-24T01:46:37;8.30;1.00
1391;DHT22;690;51.454;7.194;2023-04-24T01:49:05;8.30;1.00
1391;DHT22;690;51.454;7.194;2023-04-24T01:51:32;8.30;1.00
1391;DHT22;690;51.454;7.194;2023-04-24T01:53:59;8.40;1.00
1391;DHT22;690;51.454;7.194;2023-04-24T01:56:29;8.30;1.00
1391;DHT22;690;51.454;7.194;2023-04-24T01:58:57;8.20;1.00
1391;DHT22;690;51.454;7.194;2023-04-24T02:01:24;8.20;1.00
1391;DHT22;690;51.454;7.194;2023-04-24T02:03:51;8.10;1.00
1391;DHT22;690;51.454;7.194;2023-04-24T02:06:18;8.10;1.00
1391;DHT22;690;51.454;7.194;2023-04-24T02:08:45;8.00;1.00
1391;DHT22;690;51.454;7.194;2023-04-24T02:11:11;8.00;1.00
1391;DHT22;690;51.454;7.194;2023-04-24T02:13:38;7.90;1.00
1391;DHT22;690;51.454;7.194;2023-04-24T02:16:06;7.80;1.00
1391;DHT22;690;51.454;7.194;2023-04-24T02:18:36;7.80;1.00
1391;DHT22;690;51.454;7.194;2023-04-24T02:21:03;7.80;1.00
1391;DHT22;690;51.454;7.194;2023-04-24T02:23:30;7.70;1.00
1391;DHT22;690;51.454;7.194;2023-04-24T02:25:56;7.70;1.00
1391;DHT22;690;51.454;7.194;2023-04-24T02:28:23;7.60;1.00
1391;DHT22;690;51.454;7.194;2023-04-24T02:30:51;7.60;1.00
1391;DHT22;690;51.454;7.194;2023-04-24T02:33:23;7.50;1.00
1391;DHT22;690;51.454;7.194;2023-04-24T02:35:49;7.50;1.00
1391;DHT22;690;51.454;7.194;2023-04-24T02:38:16;7.50;1.00
1391;DHT22;690;51.454;7.194;2023-04-24T02:40:43;7.50;1.00
1391;DHT22;690;51.454;7.194;2023-04-24T02:43:10;7.50;1.00
1391;DHT22;690;51.454;7.194;2023-04-24T02:45:38;7.50;1.00
1391;DHT22;690;51.454;7.194;2023-04-24T02:48:05;7.50;1.00
1391;DHT22;690;51.454;7.194;2023-04-24T02:50:33;7.50;1.00
1391;DHT22;690;51.454;7.194;2023-04-24T02:53:06;7.50;1.00
1391;DHT22;690;51.454;7.194;2023-04-24T02:55:36;7.50;1.00
1391;DHT22;690;51.454;7.194;2023-04-24T02:58:02;7.40;1.00
1391;DHT22;690;51.454;7.194;2023-04-24T03:00:29;7.40;1.00
1391;DHT22;690;51.454;7.194;2023-04-24T03:02:56;7.40;1.00
1391;DHT22;690;51.454;7.194;2023-04-24T03:05:23;7.40;1.00
1391;DHT22;690;51.454;7.194;2023-04-24T03:07:54;7.40;1.00
1391;DHT22;690;51.454;7.194;2023-04-24T03:10:21;7.50;1.00
1391;DHT22;690;51.454;7.194;2023-04-24T03:12:50;7.60;1.00
1391;DHT22;690;51.454;7.194;2023-04-24T03:15:22;7.60;1.00
1391;DHT22;690;51.454;7.194;2023-04-24T03:17:49;7.60;1.00
1391;DHT22;690;51.454;7.194;2023-04-24T03:20:18;7.70;1.00
1391;DHT22;690;51.454;7.194;2023-04-24T03:22:47;7.70;1.00
1391;DHT22;690;51.454;7.194;2023-04-24T03:25:16;7.70;1.00
1391;DHT22;690;51.454;7.194;2023-04-24T03:27:43;7.70;1.00
1391;DHT22;690;51.454;7.194;2023-04-24T03:30:10;7.80;1.00
1391;DHT22;690;51.454;7.194;2023-04-24T03:32:37;7.80;1.00
1391;DHT22;690;51.454;7.194;2023-04-24T03:35:06;7.80;1.00
1391;DHT22;690;51.454;7.194;2023-04-24T03:37:33;7.80;1.00
1391;DHT22;690;51.454;7.194;2023-04-24T03:40:00;7.90;1.00
1391;DHT22;690;51.454;7.194;2023-04-24T03:42:30;7.90;1.00
1391;DHT22;690;51.454;7.194;2023-04-24T03:44:57;8.00;1.00
1391;DHT22;690;51.454;7.194;2023-04-24T03:47:23;8.00;1.00
1391;DHT22;690;51.454;7.194;2023-04-24T03:49:50;8.00;1.00
1391;DHT22;690;51.454;7.194;2023-04-24T03:52:17;8.00;1.00
1391;DHT22;690;51.454;7.194;2023-04-24T03:54:44;8.00;1.00
1391;DHT22;690;51.454;7.194;2023-04-24T03:57:13;8.00;1.00
1391;DHT22;690;51.454;7.194;2023-04-24T03:59:41;8.00;1.00
1391;DHT22;690;51.454;7.194;2023-04-24T04:02:32;8.10;1.00
1391;DHT22;690;51.454;7.194;2023-04-24T04:05:23;8.00;1.00
1391;DHT22;690;51.454;7.194;2023-04-24T04:08:16;8.00;1.00
1391;DHT22;690;51.454;7.194;2023-04-24T04:11:07;8.00;1.00
1391;DHT22;690;51.454;7.194;2023-04-24T04:13:58;8.10;1.00
1391;DHT22;690;51.454;7.194;2023-04-24T04:16:51;8.10;1.00
1391;DHT22;690;51.454;7.194;2023-04-24T04:19:41;8.10;1.00
1391;DHT22;690;51.454;7.194;2023-04-24T04:22:33;8.10;1.00
1391;DHT22;690;51.454;7.194;2023-04-24T04:25:23;8.10;1.00
1391;DHT22;690;51.454;7.194;2023-04-24T04:28:14;8.20;1.00
1391;DHT22;690;51.454;7.194;2023-04-24T04:31:05;8.10;1.00
1391;DHT22;690;51.454;7.194;2023-04-24T04:33:58;8.10;1.00
1391;DHT22;690;51.454;7.194;2023-04-24T04:36:49;8.10;1.00
1391;DHT22;690;51.454;7.194;2023-04-24T04:39:39;8.10;1.00
1391;DHT22;690;51.454;7.194;2023-04-24T04:42:31;8.10;1.00
1391;DHT22;690;51.454;7.194;2023-04-24T04:45:22;8.10;1.00
1391;DHT22;690;51.454;7.194;2023-04-24T04:48:13;8.10;1.00
1391;DHT22;690;51.454;7.194;2023-04-24T04:51:05;8.20;1.00
1391;DHT22;690;51.454;7.194;2023-04-24T04:53:56;8.20;1.00
1391;DHT22;690;51.454;7.194;2023-04-24T04:56:49;8.10;1.00
1391;DHT22;690;51.454;7.194;2023-04-24T04:59:44;8.10;1.00
1391;DHT22;690;51.454;7.194;2023-04-24T05:02:36;8.20;1.00
1391;DHT22;690;51.454;7.194;2023-04-24T05:05:27;8.10;1.00
1391;DHT22;690;51.454;7.194;2023-04-24T05:08:20;8.20;1.00
1391;DHT22;690;51.454;7.194;2023-04-24T05:11:11;8.20;1.00
1391;DHT22;690;51.454;7.194;2023-04-24T05:14:02;8.20;1.00
1391;DHT22;690;51.454;7.194;2023-04-24T05:16:52;8.30;1.00
1391;DHT22;690;51.454;7.194;2023-04-24T05:19:23;8.20;1.00
1391;DHT22;690;51.454;7.194;2023-04-24T05:21:50;8.30;1.00
1391;DHT22;690;51.454;7.194;2023-04-24T05:24:20;8.30;1.00
1391;DHT22;690;51.454;7.194;2023-04-24T05:26:47;8.30;1.00
1391;DHT22;690;51.454;7.194;2023-04-24T05:29:13;8.40;1.00
1391;DHT22;690;51.454;7.194;2023-04-24T05:31:40;8.40;1.00
1391;DHT22;690;51.454;7.194;2023-04-24T05:34:07;8.40;1.00
1391;DHT22;690;51.454;7.194;2023-04-24T05:36:37;8.50;1.00
1391;DHT22;690;51.454;7.194;2023-04-24T05:39:03;8.60;1.00
1391;DHT22;690;51.454;7.194;2023-04-24T05:41:32;8.50;1.00
1391;DHT22;690;51.454;7.194;2023-04-24T05:43:58;8.50;1.00
1391;DHT22;690;51.454;7.194;2023-04-24T05:46:27;8.50;1.00
1391;DHT22;690;51.454;7.194;2023-04-24T05:48:57;8.50;1.00
1391;DHT22;690;51.454;7.194;2023-04-24T05:51:25;8.50;1.00
1391;DHT22;690;51.454;7.194;2023-04-24T05:53:52;8.50;1.00
1391;DHT22;690;51.454;7.194;2023-04-24T05:56:21;8.50;1.00
1391;DHT22;690;51.454;7.194;2023-04-24T05:58:49;8.40;1.00
1391;DHT22;690;51.454;7.194;2023-04-24T06:01:16;8.30;1.00
1391;DHT22;690;51.454;7.194;2023-04-24T06:03:43;8.20;1.00
1391;DHT22;690;51.454;7.194;2023-04-24T06:06:10;8.20;1.00
1391;DHT22;690;51.454;7.194;2023-04-24T06:08:37;8.10;1.00
1391;DHT22;690;51.454;7.194;2023-04-24T06:11:04;8.00;1.00
1391;DHT22;690;51.454;7.194;2023-04-24T06:13:31;8.00;1.00
1391;DHT22;690;51.454;7.194;2023-04-24T06:15:59;7.90;1.00
1391;DHT22;690;51.454;7.194;2023-04-24T06:18:26;8.00;1.00
1391;DHT22;690;51.454;7.194;2023-04-24T06:20:52;8.00;1.00
1391;DHT22;690;51.454;7.194;2023-04-24T06:23:20;8.00;1.00
1391;DHT22;690;51.454;7.194;2023-04-24T06:25:47;8.00;1.00
1391;DHT22;690;51.454;7.194;2023-04-24T06:28:14;8.00;1.00
1391;DHT22;690;51.454;7.194;2023-04-24T06:30:41;8.00;1.00
1391;DHT22;690;51.454;7.194;2023-04-24T06:33:10;8.00;1.00
1391;DHT22;690;51.454;7.194;2023-04-24T06:35:37;8.00;1.00
1391;DHT22;690;51.454;7.194;2023-04-24T06:38:04;8.00;1.00
1391;DHT22;690;51.454;7.194;2023-04-24T06:40:31;8.00;1.00
1391;DHT22;690;51.454;7.194;2023-04-24T06:42:59;8.00;1.00
1391;DHT22;690;51.454;7.194;2023-04-24T06:45:28;8.10;1.00
1391;DHT22;690;51.454;7.194;2023-04-24T06:47:55;8.10;1.00
1391;DHT22;690;51.454;7.194;2023-04-24T06:50:23;8.20;1.00
1391;DHT22;690;51.454;7.194;2023-04-24T06:52:50;8.20;1.00
1391;DHT22;690;51.454;7.194;2023-04-24T06:55:17;8.30;1.00
1391;DHT22;690;51.454;7.194;2023-04-24T06:57:44;8.40;1.00
1391;DHT22;690;51.454;7.194;2023-04-24T07:00:12;8.60;1.00
1391;DHT22;690;51.454;7.194;2023-04-24T07:02:39;8.70;1.00
1391;DHT22;690;51.454;7.194;2023-04-24T07:05:06;8.80;1.00
1391;DHT22;690;51.454;7.194;2023-04-24T07:07:35;9.00;1.00
1391;DHT22;690;51.454;7.194;2023-04-24T07:10:04;9.00;1.00
1391;DHT22;690;51.454;7.194;2023-04-24T07:12:30;9.00;1.00
1391;DHT22;690;51.454;7.194;2023-04-24T07:14:57;9.00;1.00
1391;DHT22;690;51.454;7.194;2023-04-24T07:17:24;8.90;1.00
1391;DHT22;690;51.454;7.194;2023-04-24T07:19:51;8.90;1.00
1391;DHT22;690;51.454;7.194;2023-04-24T07:22:18;8.70;1.00
1391;DHT22;690;51.454;7.194;2023-04-24T07:24:46;8.70;1.00
1391;DHT22;690;51.454;7.194;2023-04-24T07:27:13;8.60;1.00
1391;DHT22;690;51.454;7.194;2023-04-24T07:29:40;8.60;1.00
1391;DHT22;690;51.454;7.194;2023-04-24T07:32:07;8.60;1.00
1391;DHT22;690;51.454;7.194;2023-04-24T07:34:34;8.50;1.00
1391;DHT22;690;51.454;7.194;2023-04-24T07:37:01;8.40;1.00
1391;DHT22;690;51.454;7.194;2023-04-24T07:39:29;8.40;1.00
1391;DHT22;690;51.454;7.194;2023-04-24T07:41:57;8.40;1.00
1391;DHT22;690;51.454;7.194;2023-04-24T07:44:25;8.40;1.00
1391;DHT22;690;51.454;7.194;2023-04-24T07:46:52;8.40;1.00
1391;DHT22;690;51.454;7.194;2023-04-24T07:49:19;8.40;1.00
1391;DHT22;690;51.454;7.194;2023-04-24T07:51:46;8.40;1.00
1391;DHT22;690;51.454;7.194;2023-04-24T07:54:13;8.30;1.00
1391;DHT22;690;51.454;7.194;2023-04-24T07:56:40;8.20;1.00
1391;DHT22;690;51.454;7.194;2023-04-24T07:59:10;8.10;1.00
1391;DHT22;690;51.454;7.194;2023-04-24T08:01:37;8.20;1.00
1391;DHT22;690;51.454;7.194;2023-04-24T08:04:04;8.10;1.00
1391;DHT22;690;51.454;7.194;2023-04-24T08:06:31;8.10;1.00
1391;DHT22;690;51.454;7.194;2023-04-24T08:08:59;8.10;1.00
1391;DHT22;690;51.454;7.194;2023-04-24T08:11:26;7.90;1.00
1391;DHT22;690;51.454;7.194;2023-04-24T08:13:53;8.10;1.00
1391;DHT22;690;51.454;7.194;2023-04-24T08:16:22;8.30;1.00
1391;DHT22;690;51.454;7.194;2023-04-24T08:18:49;8.50;1.00
1391;DHT22;690;51.454;7.194;2023-04-24T08:21:16;8.60;1.00
1391;DHT22;690;51.454;7.194;2023-04-24T08:23:44;8.60;1.00
1391;DHT22;690;51.454;7.194;2023-04-24T08:26:11;8.50;1.00
1391;DHT22;690;51.454;7.194;2023-04-24T08:28:38;8.50;1.00
1391;DHT22;690;51.454;7.194;2023-04-24T08:31:05;8.50;1.00
1391;DHT22;690;51.454;7.194;2023-04-24T08:33:33;8.50;1.00
1391;DHT22;690;51.454;7.194;2023-04-24T08:36:01;8.40;1.00
1391;DHT22;690;51.454;7.194;2023-04-24T08:38:28;8.40;1.00
1391;DHT22;690;51.454;7.194;2023-04-24T08:40:57;8.30;1.00
1391;DHT22;690;51.454;7.194;2023-04-24T08:43:25;8.20;1.00
1391;DHT22;690;51.454;7.194;2023-04-24T08:45:52;8.10;1.00
1391;DHT22;690;51.454;7.194;2023-04-24T08:48:20;8.00;1.00
1391;DHT22;690;51.454;7.194;2023-04-24T08:50:50;8.00;1.00
1391;DHT22;690;51.454;7.194;2023-04-24T08:53:18;8.00;1.00
1391;DHT22;690;51.454;7.194;2023-04-24T08:55:47;8.00;1.00
1391;DHT22;690;51.454;7.194;2023-04-24T08:58:15;8.00;1.00
1391;DHT22;690;51.454;7.194;2023-04-24T09:00:43;7.90;1.00
1391;DHT22;690;51.454;7.194;2023-04-24T09:03:13;7.90;1.00
1391;DHT22;690;51.454;7.194;2023-04-24T09:05:42;7.90;1.00
1391;DHT22;690;51.454;7.194;2023-04-24T09:08:13;7.70;1.00
1391;DHT22;690;51.454;7.194;2023-04-24T09:10:41;7.70;1.00
1391;DHT22;690;51.454;7.194;2023-04-24T09:13:08;7.60;1.00
1391;DHT22;690;51.454;7.194;2023-04-24T09:15:36;7.60;1.00
1391;DHT22;690;51.454;7.194;2023-04-24T09:18:03;7.60;1.00
1391;DHT22;690;51.454;7.194;2023-04-24T09:20:31;7.60;1.00
1391;DHT22;690;51.454;7.194;2023-04-24T09:22:58;7.60;1.00
1391;DHT22;690;51.454;7.194;2023-04-24T09:25:31;7.50;1.00
1391;DHT22;690;51.454;7.194;2023-04-24T09:28:01;7.60;88.30
1391;DHT22;690;51.454;7.194;2023-04-24T09:30:28;7.60;99.90
1391;DHT22;690;51.454;7.194;2023-04-24T09:33:12;7.70;99.90
1391;DHT22;690;51.454;7.194;2023-04-24T09:35:41;7.60;99.90
1391;DHT22;690;51.454;7.194;2023-04-24T09:38:08;7.50;1.00
1391;DHT22;690;51.454;7.194;2023-04-24T09:40:37;7.60;1.00
1391;DHT22;690;51.454;7.194;2023-04-24T09:43:04;7.60;1.00
1391;DHT22;690;51.454;7.194;2023-04-24T09:45:35;7.60;3.50
1391;DHT22;690;51.454;7.194;2023-04-24T09:48:03;7.60;1.00
1391;DHT22;690;51.454;7.194;2023-04-24T09:50:32;7.70;99.90
1391;DHT22;690;51.454;7.194;2023-04-24T09:53:02;7.90;96.10
1391;DHT22;690;51.454;7.194;2023-04-24T09:55:30;7.90;1.00
1391;DHT22;690;51.454;7.194;2023-04-24T09:58:00;8.00;1.00
1391;DHT22;690;51.454;7.194;2023-04-24T10:00:31;7.80;1.00
1391;DHT22;690;51.454;7.194;2023-04-24T10:03:00;7.70;1.00
1391;DHT22;690;51.454;7.194;2023-04-24T10:05:28;7.50;1.00
1391;DHT22;690;51.454;7.194;2023-04-24T10:08:01;7.20;99.90
1391;DHT22;690;51.454;7.194;2023-04-24T10:10:28;7.10;99.90
1391;DHT22;690;51.454;7.194;2023-04-24T10:12:55;7.20;99.90
1391;DHT22;690;51.454;7.194;2023-04-24T10:15:24;7.20;99.90
1391;DHT22;690;51.454;7.194;2023-04-24T10:17:52;7.10;99.90
1391;DHT22;690;51.454;7.194;2023-04-24T10:20:21;6.90;99.90
1391;DHT22;690;51.454;7.194;2023-04-24T10:22:49;6.80;99.90
1391;DHT22;690;51.454;7.194;2023-04-24T10:25:19;6.70;99.90
1391;DHT22;690;51.454;7.194;2023-04-24T10:27:47;6.60;1.00
1391;DHT22;690;51.454;7.194;2023-04-24T10:30:15;6.60;46.60
1391;DHT22;690;51.454;7.194;2023-04-24T10:32:43;6.50;1.00
1391;DHT22;690;51.454;7.194;2023-04-24T10:35:12;6.40;1.00
1391;DHT22;690;51.454;7.194;2023-04-24T10:37:42;6.40;1.00
1391;DHT22;690;51.454;7.194;2023-04-24T10:40:10;6.40;63.90
1391;DHT22;690;51.454;7.194;2023-04-24T10:42:40;6.50;1.00
1391;DHT22;690;51.454;7.194;2023-04-24T10:45:16;6.70;99.90
1391;DHT22;690;51.454;7.194;2023-04-24T10:47:52;6.80;1.00
1391;DHT22;690;51.454;7.194;2023-04-24T10:50:19;7.00;1.00
1391;DHT22;690;51.454;7.194;2023-04-24T10:52:47;7.10;1.00
1391;DHT22;690;51.454;7.194;2023-04-24T10:55:17;7.30;1.00
1391;DHT22;690;51.454;7.194;2023-04-24T10:58:04;7.40;99.90
1391;DHT22;690;51.454;7.194;2023-04-24T11:00:31;7.50;99.90
1391;DHT22;690;51.454;7.194;2023-04-24T11:02:59;7.60;99.90
1391;DHT22;690;51.454;7.194;2023-04-24T11:05:50;7.60;5.20
1391;DHT22;690;51.454;7.194;2023-04-24T11:08:26;7.60;1.00
1391;DHT22;690;51.454;7.194;2023-04-24T11:10:58;7.60;1.00
1391;DHT22;690;51.454;7.194;2023-04-24T11:13:27;7.50;1.00
1391;DHT22;690;51.454;7.194;2023-04-24T11:16:14;7.30;1.00
1391;DHT22;690;51.454;7.194;2023-04-24T11:18:43;7.30;99.90
1391;DHT22;690;51.454;7.194;2023-04-24T11:21:17;7.30;99.90
1391;DHT22;690;51.454;7.194;2023-04-24T11:23:44;7.30;99.90
1391;DHT22;690;51.454;7.194;2023-04-24T11:26:12;7.30;99.90
1391;DHT22;690;51.454;7.194;2023-04-24T11:28:45;7.30;99.90
1391;DHT22;690;51.454;7.194;2023-04-24T11:31:38;7.40;99.90
1391;DHT22;690;51.454;7.194;2023-04-24T11:34:12;7.50;99.90
1391;DHT22;690;51.454;7.194;2023-04-24T11:36:39;7.60;99.90
1391;DHT22;690;51.454;7.194;2023-04-24T11:39:06;7.80;99.90
1391;DHT22;690;51.454;7.194;2023-04-24T11:41:34;7.90;1.00
1391;DHT22;690;51.454;7.194;2023-04-24T11:44:01;8.00;1.00
1391;DHT22;690;51.454;7.194;2023-04-24T11:46:30;8.20;1.00
1391;DHT22;690;51.454;7.194;2023-04-24T11:48:58;8.40;1.00
1391;DHT22;690;51.454;7.194;2023-04-24T11:51:27;8.60;99.90
1391;DHT22;690;51.454;7.194;2023-04-24T11:53:55;8.70;99.90
1391;DHT22;690;51.454;7.194;2023-04-24T11:56:22;8.60;99.90
1391;DHT22;690;51.454;7.194;2023-04-24T11:58:52;8.60;99.90
1391;DHT22;690;51.454;7.194;2023-04-24T12:01:19;8.50;99.90
1391;DHT22;690;51.454;7.194;2023-04-24T12:03:48;8.60;99.90
1391;DHT22;690;51.454;7.194;2023-04-24T12:06:17;8.60;99.90
1391;DHT22;690;51.454;7.194;2023-04-24T12:08:47;8.50;26.40
1391;DHT22;690;51.454;7.194;2023-04-24T12:11:16;8.30;1.00
1391;DHT22;690;51.454;7.194;2023-04-24T12:13:44;8.10;1.00
1391;DHT22;690;51.454;7.194;2023-04-24T12:16:11;7.90;1.00
1391;DHT22;690;51.454;7.194;2023-04-24T12:18:42;8.10;1.00
1391;DHT22;690;51.454;7.194;2023-04-24T12:21:21;8.60;1.00
1391;DHT22;690;51.454;7.194;2023-04-24T12:23:54;9.00;1.00
1391;DHT22;690;51.454;7.194;2023-04-24T12:26:21;9.30;1.00
1391;DHT22;690;51.454;7.194;2023-04-24T12:28:49;9.50;1.00
1391;DHT22;690;51.454;7.194;2023-04-24T12:31:16;9.50;1.00
1391;DHT22;690;51.454;7.194;2023-04-24T12:33:43;9.60;1.00
1391;DHT22;690;51.454;7.194;2023-04-24T12:36:11;9.60;1.00
1391;DHT22;690;51.454;7.194;2023-04-24T12:38:39;9.50;1.00
1391;DHT22;690;51.454;7.194;2023-04-24T12:41:12;9.50;1.00
1391;DHT22;690;51.454;7.194;2023-04-24T12:43:51;9.30;1.00
1391;DHT22;690;51.454;7.194;2023-04-24T12:46:19;9.00;1.00
1391;DHT22;690;51.454;7.194;2023-04-24T12:48:45;8.80;99.90
1391;DHT22;690;51.454;7.194;2023-04-24T12:51:12;8.50;99.90
1391;DHT22;690;51.454;7.194;2023-04-24T12:53:39;8.40;99.90
1391;DHT22;690;51.454;7.194;2023-04-24T12:56:06;8.30;99.90
1391;DHT22;690;51.454;7.194;2023-04-24T12:58:35;8.40;1.00
1391;DHT22;690;51.454;7.194;2023-04-24T13:01:01;8.40;1.00
1391;DHT22;690;51.454;7.194;2023-04-24T13:03:28;8.50;1.00
1391;DHT22;690;51.454;7.194;2023-04-24T13:05:55;8.70;1.00
1391;DHT22;690;51.454;7.194;2023-04-24T13:08:22;9.10;1.00
1391;DHT22;690;51.454;7.194;2023-04-24T13:10:49;9.50;99.90
1391;DHT22;690;51.454;7.194;2023-04-24T13:13:17;9.70;99.90
1391;DHT22;690;51.454;7.194;2023-04-24T13:15:45;9.80;99.90
1391;DHT22;690;51.454;7.194;2023-04-24T13:18:12;9.80;99.90
1391;DHT22;690;51.454;7.194;2023-04-24T13:20:39;9.60;99.90
1391;DHT22;690;51.454;7.194;2023-04-24T13:23:06;9.30;99.90
1391;DHT22;690;51.454;7.194;2023-04-24T13:25:35;8.90;99.90
1391;DHT22;690;51.454;7.194;2023-04-24T13:28:02;8.70;99.90
1391;DHT22;690;51.454;7.194;2023-04-24T13:30:29;8.60;99.90
1391;DHT22;690;51.454;7.194;2023-04-24T13:32:57;8.50;99.90
1391;DHT22;690;51.454;7.194;2023-04-24T13:35:24;8.50;99.90
1391;DHT22;690;51.454;7.194;2023-04-24T13:37:51;8.60;99.90
1391;DHT22;690;51.454;7.194;2023-04-24T13:40:18;8.50;99.90
1391;DHT22;690;51.454;7.194;2023-04-24T13:42:45;8.40;99.90
1391;DHT22;690;51.454;7.194;2023-04-24T13:45:11;8.40;99.90
1391;DHT22;690;51.454;7.194;2023-04-24T13:47:39;8.50;99.90
1391;DHT22;690;51.454;7.194;2023-04-24T13:50:08;8.50;99.90
1391;DHT22;690;51.454;7.194;2023-04-24T13:52:35;8.50;99.90
1391;DHT22;690;51.454;7.194;2023-04-24T13:55:02;8.50;99.90
1391;DHT22;690;51.454;7.194;2023-04-24T13:57:30;8.60;99.90
1391;DHT22;690;51.454;7.194;2023-04-24T13:59:58;8.70;99.90
1391;DHT22;690;51.454;7.194;2023-04-24T14:02:28;8.70;99.90
1391;DHT22;690;51.454;7.194;2023-04-24T14:04:57;8.70;99.90
1391;DHT22;690;51.454;7.194;2023-04-24T14:07:26;8.90;99.90
1391;DHT22;690;51.454;7.194;2023-04-24T14:09:52;9.00;99.90
1391;DHT22;690;51.454;7.194;2023-04-24T14:12:20;9.10;99.90
1391;DHT22;690;51.454;7.194;2023-04-24T14:14:47;9.30;99.90
1391;DHT22;690;51.454;7.194;2023-04-24T14:17:14;9.50;99.90
1391;DHT22;690;51.454;7.194;2023-04-24T14:19:41;9.60;99.90
1391;DHT22;690;51.454;7.194;2023-04-24T14:22:08;9.70;99.90
1391;DHT22;690;51.454;7.194;2023-04-24T14:24:36;9.70;99.90
1391;DHT22;690;51.454;7.194;2023-04-24T14:27:03;10.00;99.90
1391;DHT22;690;51.454;7.194;2023-04-24T14:29:30;10.20;99.90
1391;DHT22;690;51.454;7.194;2023-04-24T14:31:57;10.30;99.90
1391;DHT22;690;51.454;7.194;2023-04-24T14:34:24;10.30;99.90
1391;DHT22;690;51.454;7.194;2023-04-24T14:36:52;10.10;99.90
1391;DHT22;690;51.454;7.194;2023-04-24T14:39:20;9.80;99.90
1391;DHT22;690;51.454;7.194;2023-04-24T14:41:51;9.60;99.90
1391;DHT22;690;51.454;7.194;2023-04-24T14:44:18;9.40;99.90
1391;DHT22;690;51.454;7.194;2023-04-24T14:46:46;9.20;99.90
1391;DHT22;690;51.454;7.194;2023-04-24T14:49:13;9.00;99.90
1391;DHT22;690;51.454;7.194;2023-04-24T14:51:40;8.90;99.90
1391;DHT22;690;51.454;7.194;2023-04-24T14:54:08;8.80;99.90
1391;DHT22;690;51.454;7.194;2023-04-24T14:56:35;8.60;99.90
1391;DHT22;690;51.454;7.194;2023-04-24T14:59:03;8.30;99.90
1391;DHT22;690;51.454;7.194;2023-04-24T15:01:32;8.20;99.90
1391;DHT22;690;51.454;7.194;2023-04-24T15:03:59;8.20;99.90
1391;DHT22;690;51.454;7.194;2023-04-24T15:06:26;8.10;99.90
1391;DHT22;690;51.454;7.194;2023-04-24T15:08:53;8.20;99.90
1391;DHT22;690;51.454;7.194;2023-04-24T15:11:20;8.30;99.90
1391;DHT22;690;51.454;7.194;2023-04-24T15:13:50;8.30;99.90
1391;DHT22;690;51.454;7.194;2023-04-24T15:16:21;8.30;99.90
1391;DHT22;690;51.454;7.194;2023-04-24T15:18:47;8.40;99.90
1391;DHT22;690;51.454;7.194;2023-04-24T15:21:14;8.60;99.90
1391;DHT22;690;51.454;7.194;2023-04-24T15:23:41;8.90;99.90
1391;DHT22;690;51.454;7.194;2023-04-24T15:26:08;9.50;1.00
1391;DHT22;690;51.454;7.194;2023-04-24T15:28:35;10.00;99.90
1391;DHT22;690;51.454;7.194;2023-04-24T15:31:02;10.40;99.90
1391;DHT22;690;51.454;7.194;2023-04-24T15:33:30;10.70;99.90
1391;DHT22;690;51.454;7.194;2023-04-24T15:35:59;11.00;99.90
1391;DHT22;690;51.454;7.194;2023-04-24T15:38:26;10.90;99.90
1391;DHT22;690;51.454;7.194;2023-04-24T15:40:53;10.90;99.90
1391;DHT22;690;51.454;7.194;2023-04-24T15:43:20;10.80;99.90
1391;DHT22;690;51.454;7.194;2023-04-24T15:45:49;10.70;99.90
1391;DHT22;690;51.454;7.194;2023-04-24T15:48:18;10.60;99.90
1391;DHT22;690;51.454;7.194;2023-04-24T15:50:46;10.40;99.90
1391;DHT22;690;51.454;7.194;2023-04-24T15:53:13;10.20;99.90
1391;DHT22;690;51.454;7.194;2023-04-24T15:55:46;10.00;99.90
1391;DHT22;690;51.454;7.194;2023-04-24T15:58:13;9.80;99.90
1391;DHT22;690;51.454;7.194;2023-04-24T16:00:42;9.70;99.90
1391;DHT22;690;51.454;7.194;2023-04-24T16:03:10;9.60;99.90
1391;DHT22;690;51.454;7.194;2023-04-24T16:05:36;9.70;99.90
1391;DHT22;690;51.454;7.194;2023-04-24T16:08:05;9.80;99.90
1391;DHT22;690;51.454;7.194;2023-04-24T16:10:32;10.00;99.90
1391;DHT22;690;51.454;7.194;2023-04-24T16:12:59;10.40;99.90
1391;DHT22;690;51.454;7.194;2023-04-24T16:15:28;10.90;99.90
1391;DHT22;690;51.454;7.194;2023-04-24T16:17:57;11.20;99.90
1391;DHT22;690;51.454;7.194;2023-04-24T16:20:24;11.10;99.90
1391;DHT22;690;51.454;7.194;2023-04-24T16:22:58;10.80;99.90
1391;DHT22;690;51.454;7.194;2023-04-24T16:25:28;10.50;99.90
1391;DHT22;690;51.454;7.194;2023-04-24T16:27:55;10.20;99.90
1391;DHT22;690;51.454;7.194;2023-04-24T16:30:25;10.00;99.90
1391;DHT22;690;51.454;7.194;2023-04-24T16:32:52;9.90;99.90
1391;DHT22;690;51.454;7.194;2023-04-24T16:35:19;9.80;99.90
1391;DHT22;690;51.454;7.194;2023-04-24T16:37:46;9.60;99.90
1391;DHT22;690;51.454;7.194;2023-04-24T16:40:13;9.60;99.90
1391;DHT22;690;51.454;7.194;2023-04-24T16:42:43;9.70;99.90
1391;DHT22;690;51.454;7.194;2023-04-24T16:45:11;9.70;99.90
1391;DHT22;690;51.454;7.194;2023-04-24T16:47:44;9.60;99.90
1391;DHT22;690;51.454;7.194;2023-04-24T16:50:11;9.50;99.90
1391;DHT22;690;51.454;7.194;2023-04-24T16:52:38;9.30;99.90
1391;DHT22;690;51.454;7.194;2023-04-24T16:55:06;9.10;99.90
1391;DHT22;690;51.454;7.194;2023-04-24T16:57:34;9.10;99.90
1391;DHT22;690;51.454;7.194;2023-04-24T17:00:07;9.00;99.90